Time;durP1;ratioP1;P1;durP2;ratioP2;P2;SDS_P1;SDS_P2;PMS_P1;PMS_P2;Temp;Humidity;BMP_temperature;BMP_pressure;BME280_temperature;BME280_humidity;BME280_pressure;Samples;Min_cycle;Max_cycle;Signal;HPM_P1;HPM_P2
2022/09/30 00:01:49;;;;;;;0.00;0.00;;;9.80;99.90;;;;;;5037557;28;20057;-81
2022/09/30 00:04:21;;;;;;;0.00;0.00;;;9.80;99.90;;;;;;5037052;28;20057;-81
2022/09/30 00:06:48;;;;;;;0.00;0.00;;;9.80;99.90;;;;;;5036938;28;20404;-81
2022/09/30 00:09:14;;;;;;;0.00;0.00;;;9.70;99.90;;;;;;5053794;28;20068;-82
2022/09/30 00:11:41;;;;;;;0.00;0.00;;;9.70;99.90;;;;;;5053308;28;20057;-82
2022/09/30 00:14:12;;;;;;;0.10;0.00;;;9.70;99.90;;;;;;5053365;28;20045;-81
2022/09/30 00:16:38;;;;;;;0.00;0.00;;;9.70;99.90;;;;;;5036941;28;20143;-81
2022/09/30 00:19:05;;;;;;;0.00;0.00;;;9.70;99.90;;;;;;5036929;28;20131;-81
2022/09/30 00:21:32;;;;;;;0.52;0.32;;;9.80;99.90;;;;;;5053382;28;20045;-82
2022/09/30 00:23:59;;;;;;;0.00;0.00;;;9.70;99.90;;;;;;5036905;28;20088;-81
2022/09/30 00:26:25;;;;;;;0.00;0.00;;;9.70;99.90;;;;;;5053015;28;20095;-82
2022/09/30 00:28:54;;;;;;;0.00;0.00;;;9.70;99.90;;;;;;5053439;28;20135;-82
2022/09/30 00:31:21;;;;;;;0.00;0.00;;;9.70;99.90;;;;;;5036757;28;20053;-82
2022/09/30 00:34:05;;;;;;;0.00;0.00;;;9.70;99.90;;;;;;5053509;28;20041;-81
2022/09/30 00:36:42;;;;;;;0.00;0.00;;;9.70;99.90;;;;;;5053256;28;20493;-82
2022/09/30 00:39:11;;;;;;;0.00;0.00;;;9.60;99.90;;;;;;5052314;28;20564;-81
2022/09/30 00:41:37;;;;;;;0.00;0.00;;;9.60;99.90;;;;;;5051026;28;20049;-81
2022/09/30 00:44:42;;;;;;;0.22;0.15;;;9.60;99.90;;;;;;5052305;28;20111;-82
2022/09/30 00:47:45;;;;;;;0.00;0.00;;;9.60;99.90;;;;;;5036542;28;20052;-81
2022/09/30 00:50:14;;;;;;;0.00;0.00;;;9.60;99.90;;;;;;4996169;28;20058;-81
2022/09/30 00:52:42;;;;;;;0.00;0.00;;;9.60;99.90;;;;;;4979824;28;20065;-82
2022/09/30 00:55:33;;;;;;;0.10;0.10;;;9.60;99.90;;;;;;4996417;28;20053;-82
2022/09/30 00:58:02;;;;;;;0.00;0.00;;;9.50;99.90;;;;;;4995685;28;20137;-82
2022/09/30 01:00:28;;;;;;;0.00;0.00;;;9.50;99.90;;;;;;4995899;28;20128;-81
2022/09/30 01:02:54;;;;;;;0.00;0.00;;;9.50;99.90;;;;;;4996122;28;20482;-82
2022/09/30 01:05:20;;;;;;;0.00;0.00;;;9.50;99.90;;;;;;4979223;28;20085;-81
2022/09/30 01:07:47;;;;;;;0.00;0.00;;;9.50;99.90;;;;;;4995862;28;20053;-81
2022/09/30 01:10:13;;;;;;;0.00;0.00;;;9.50;99.90;;;;;;4995806;28;20052;-81
2022/09/30 01:12:39;;;;;;;0.00;0.00;;;9.50;99.90;;;;;;4995746;28;20436;-82
2022/09/30 01:15:05;;;;;;;0.00;0.00;;;9.40;99.90;;;;;;4995756;28;20050;-81
2022/09/30 01:18:03;;;;;;;0.00;0.00;;;9.40;99.90;;;;;;4980944;28;20045;-82
2022/09/30 01:21:04;;;;;;;0.00;0.00;;;9.40;99.90;;;;;;4983662;28;20054;-82
2022/09/30 01:24:06;;;;;;;0.13;0.08;;;9.40;99.90;;;;;;4999520;28;20060;-82
2022/09/30 01:26:43;;;;;;;0.00;0.00;;;9.40;99.90;;;;;;5029648;28;20405;-82
2022/09/30 01:29:59;;;;;;;0.00;0.00;;;9.30;99.90;;;;;;5039894;28;20115;-82
2022/09/30 01:32:33;;;;;;;0.00;0.00;;;9.20;99.90;;;;;;4999517;28;20050;-81
2022/09/30 01:35:20;;;;;;;0.00;0.00;;;9.20;99.90;;;;;;4983405;28;20081;-82
2022/09/30 01:38:11;;;;;;;0.05;0.05;;;9.10;99.90;;;;;;4983452;28;20049;-82
2022/09/30 01:40:49;;;;;;;0.00;0.00;;;9.00;99.90;;;;;;4998530;28;20549;-82
2022/09/30 01:43:44;;;;;;;0.00;0.00;;;9.00;99.90;;;;;;4998905;28;20062;-82
2022/09/30 01:46:09;;;;;;;0.10;0.00;;;8.90;99.90;;;;;;4983183;28;20280;-82
2022/09/30 01:48:55;;;;;;;0.10;0.10;;;8.90;99.90;;;;;;4999222;28;20144;-82
2022/09/30 01:51:45;;;;;;;0.00;0.00;;;8.80;99.90;;;;;;4999868;28;20109;-81
2022/09/30 01:54:24;;;;;;;0.00;0.00;;;8.80;99.90;;;;;;4999491;28;20058;-81
2022/09/30 01:56:55;;;;;;;0.00;0.00;;;8.80;99.90;;;;;;4999252;28;20050;-81
2022/09/30 01:59:33;;;;;;;0.00;0.00;;;8.70;99.90;;;;;;4999071;28;20054;-82
2022/09/30 02:02:07;;;;;;;0.00;0.00;;;8.70;99.90;;;;;;4983193;28;20050;-81
2022/09/30 02:04:41;;;;;;;0.10;0.10;;;8.80;99.90;;;;;;4982712;28;20113;-81
2022/09/30 02:07:14;;;;;;;0.00;0.00;;;8.70;99.90;;;;;;5050559;28;20110;-82
2022/09/30 02:09:48;;;;;;;0.00;0.00;;;8.60;99.90;;;;;;5039384;28;20448;-82
2022/09/30 02:12:18;;;;;;;0.00;0.00;;;8.70;99.90;;;;;;5039236;28;20053;-82
2022/09/30 02:14:49;;;;;;;0.00;0.00;;;8.60;99.90;;;;;;5055669;28;20056;-81
2022/09/30 02:17:59;;;;;;;0.00;0.00;;;8.70;99.90;;;;;;5055516;28;20079;-82
2022/09/30 02:20:28;;;;;;;0.00;0.00;;;8.60;99.90;;;;;;4998777;28;20104;-81
2022/09/30 02:23:09;;;;;;;0.00;0.00;;;8.60;99.90;;;;;;4982744;28;20108;-81
2022/09/30 02:25:41;;;;;;;0.00;0.00;;;8.60;99.90;;;;;;4998548;28;20096;-81
2022/09/30 02:28:11;;;;;;;0.00;0.00;;;8.60;99.90;;;;;;4982119;28;20081;-82
2022/09/30 02:30:42;;;;;;;0.10;0.10;;;8.50;99.90;;;;;;4998475;28;20050;-82
2022/09/30 02:33:16;;;;;;;0.10;0.10;;;8.50;99.90;;;;;;4982854;28;20057;-82
2022/09/30 02:35:51;;;;;;;0.10;0.10;;;8.50;99.90;;;;;;4982158;28;20042;-81
2022/09/30 02:38:20;;;;;;;0.10;0.10;;;8.40;99.90;;;;;;4998136;28;20545;-81
2022/09/30 02:40:55;;;;;;;0.00;0.00;;;8.40;99.90;;;;;;4998721;28;20391;-81
2022/09/30 02:43:21;;;;;;;0.00;0.00;;;8.30;99.90;;;;;;4997917;28;20058;-82
2022/09/30 02:46:01;;;;;;;1.85;0.00;;;8.30;99.90;;;;;;4997783;28;20093;-82
2022/09/30 02:48:46;;;;;;;0.00;0.00;;;8.30;99.90;;;;;;4982607;28;20057;-81
2022/09/30 02:51:35;;;;;;;0.05;0.00;;;8.20;99.90;;;;;;5013179;28;20405;-82
2022/09/30 02:54:20;;;;;;;0.00;0.00;;;8.20;99.90;;;;;;5038865;28;20461;-82
2022/09/30 02:56:56;;;;;;;0.00;0.00;;;8.20;99.90;;;;;;5038119;28;20493;-82
2022/09/30 02:59:23;;;;;;;0.00;0.00;;;8.20;99.90;;;;;;5054893;28;20333;-81
2022/09/30 03:01:49;;;;;;;2.53;0.43;;;8.20;99.90;;;;;;5054838;28;20124;-82
2022/09/30 03:04:20;;;;;;;3.75;1.02;;;8.10;99.90;;;;;;5054769;28;20079;-82
2022/09/30 03:06:45;;;;;;;0.00;0.00;;;8.10;99.90;;;;;;5038507;28;20099;-82
2022/09/30 03:09:11;;;;;;;0.00;0.00;;;8.20;99.90;;;;;;5038489;28;20061;-81
2022/09/30 03:11:37;;;;;;;0.00;0.00;;;8.20;99.90;;;;;;5038400;28;20446;-82
2022/09/30 03:14:39;;;;;;;0.00;0.00;;;8.20;99.90;;;;;;5038021;28;20044;-82
2022/09/30 03:17:21;;;;;;;0.00;0.00;;;8.20;99.90;;;;;;5054968;28;20131;-82
2022/09/30 03:20:11;;;;;;;0.00;0.00;;;8.20;99.90;;;;;;5038098;28;20131;-82
2022/09/30 03:23:24;;;;;;;0.13;0.13;;;8.20;99.90;;;;;;5055241;28;20052;-82
2022/09/30 03:26:09;;;;;;;0.00;0.00;;;8.10;99.90;;;;;;5038426;28;20044;-82
2022/09/30 03:28:38;;;;;;;0.00;0.00;;;8.10;99.90;;;;;;5039021;28;20373;-81
2022/09/30 03:31:11;;;;;;;0.00;0.00;;;8.00;99.90;;;;;;5054344;28;20037;-82
2022/09/30 03:33:36;;;;;;;0.00;0.00;;;8.00;99.90;;;;;;5055041;28;20053;-82
2022/09/30 03:36:02;;;;;;;0.00;0.00;;;8.00;99.90;;;;;;5054197;28;20045;-81
2022/09/30 03:38:50;;;;;;;0.03;0.00;;;8.00;99.90;;;;;;5038507;28;20053;-80
2022/09/30 03:41:16;;;;;;;0.43;0.00;;;7.90;99.90;;;;;;5053502;28;20048;-81
2022/09/30 03:43:44;;;;;;;0.00;0.00;;;7.90;99.90;;;;;;5054453;28;20139;-81
2022/09/30 03:46:22;;;;;;;0.00;0.00;;;8.00;99.90;;;;;;5054054;28;20055;-81
2022/09/30 03:48:52;;;;;;;0.00;0.00;;;8.00;99.90;;;;;;5055121;28;20075;-81
2022/09/30 03:51:19;;;;;;;0.00;0.00;;;8.00;99.90;;;;;;5055000;28;20084;-81
2022/09/30 03:53:45;;;;;;;0.00;0.00;;;8.00;99.90;;;;;;5037458;28;20136;-81
2022/09/30 03:56:11;;;;;;;0.00;0.00;;;8.00;99.90;;;;;;5054013;28;20053;-81
2022/09/30 03:58:43;;;;;;;0.00;0.00;;;8.00;99.90;;;;;;5053984;28;20102;-81
2022/09/30 04:01:18;;;;;;;0.00;0.00;;;7.90;99.90;;;;;;5037843;28;20048;-81
2022/09/30 04:03:43;;;;;;;0.00;0.00;;;7.90;99.90;;;;;;5054679;28;20476;-81
2022/09/30 04:06:12;;;;;;;0.00;0.00;;;7.90;99.90;;;;;;5053908;28;20080;-81
2022/09/30 04:08:37;;;;;;;0.00;0.00;;;7.80;99.90;;;;;;5053220;28;20503;-81
2022/09/30 04:11:04;;;;;;;0.00;0.00;;;7.80;99.90;;;;;;5037367;28;20139;-81
2022/09/30 04:13:30;;;;;;;0.00;0.00;;;7.80;99.90;;;;;;5054618;28;20132;-81
2022/09/30 04:15:56;;;;;;;0.00;0.00;;;7.70;99.90;;;;;;5053881;28;20045;-81
2022/09/30 04:18:21;;;;;;;0.00;0.00;;;7.60;99.90;;;;;;5053887;28;20048;-81
2022/09/30 04:20:47;;;;;;;0.00;0.00;;;7.60;99.90;;;;;;5053887;28;20064;-81
2022/09/30 04:23:13;;;;;;;0.00;0.00;;;7.60;99.90;;;;;;5037151;28;20362;-81
2022/09/30 04:25:38;;;;;;;0.00;0.00;;;7.50;99.90;;;;;;5053660;28;20146;-81
2022/09/30 04:28:04;;;;;;;0.00;0.00;;;7.40;99.90;;;;;;5037022;28;20370;-81
2022/09/30 04:30:29;;;;;;;1.88;0.20;;;7.40;99.90;;;;;;5053851;28;20132;-81
2022/09/30 04:32:55;;;;;;;0.00;0.00;;;7.40;99.90;;;;;;5052938;28;20044;-81
2022/09/30 04:35:21;;;;;;;0.00;0.00;;;7.40;99.90;;;;;;5053367;28;20087;-81
2022/09/30 04:37:47;;;;;;;0.20;0.20;;;7.40;99.90;;;;;;5053327;28;20045;-81
2022/09/30 04:40:14;;;;;;;0.32;0.32;;;7.40;99.90;;;;;;5053355;28;20106;-81
2022/09/30 04:42:41;;;;;;;0.00;0.00;;;7.30;99.90;;;;;;5036768;28;20061;-81
2022/09/30 04:45:12;;;;;;;0.10;0.10;;;7.30;99.90;;;;;;5053352;28;20076;-81
2022/09/30 04:47:41;;;;;;;0.00;0.00;;;7.30;99.90;;;;;;5036609;28;20041;-81
2022/09/30 04:50:07;;;;;;;0.17;0.10;;;7.20;99.90;;;;;;5054134;28;20075;-81
2022/09/30 04:52:33;;;;;;;0.00;0.00;;;7.20;99.90;;;;;;5037833;28;20548;-81
2022/09/30 04:54:59;;;;;;;0.00;0.00;;;7.20;99.90;;;;;;5040515;28;20175;-81
2022/09/30 04:57:25;;;;;;;0.00;0.00;;;7.20;99.90;;;;;;5059694;28;20037;-81
2022/09/30 04:59:52;;;;;;;0.08;0.00;;;7.20;99.90;;;;;;5063485;28;20490;-82
2022/09/30 05:02:17;;;;;;;0.00;0.00;;;7.10;99.90;;;;;;5059921;28;20063;-81
2022/09/30 05:04:43;;;;;;;0.00;0.00;;;7.10;99.90;;;;;;5040714;28;20385;-81
2022/09/30 05:07:09;;;;;;;0.00;0.00;;;7.10;99.90;;;;;;5056672;28;20063;-81
2022/09/30 05:09:35;;;;;;;0.00;0.00;;;7.10;99.90;;;;;;5057110;28;20045;-81
2022/09/30 05:12:02;;;;;;;0.00;0.00;;;7.10;99.90;;;;;;5040371;28;20496;-81
2022/09/30 05:14:28;;;;;;;0.38;0.10;;;7.10;99.90;;;;;;5057031;28;20065;-81
2022/09/30 05:16:54;;;;;;;0.00;0.00;;;7.10;99.90;;;;;;5073496;28;20139;-81
2022/09/30 05:19:20;;;;;;;0.00;0.00;;;7.10;99.90;;;;;;5056666;28;20131;-82
2022/09/30 05:21:45;;;;;;;0.00;0.00;;;7.00;99.90;;;;;;5056702;28;20419;-82
2022/09/30 05:24:12;;;;;;;0.45;0.00;;;7.00;99.90;;;;;;5056792;28;20106;-82
2022/09/30 05:26:39;;;;;;;0.10;0.00;;;7.00;99.90;;;;;;5040047;28;20053;-82
2022/09/30 05:29:05;;;;;;;0.00;0.00;;;7.10;99.90;;;;;;5040286;28;20057;-81
2022/09/30 05:31:31;;;;;;;0.00;0.00;;;7.10;99.90;;;;;;5056509;28;20090;-82
2022/09/30 05:33:56;;;;;;;0.00;0.00;;;7.10;99.90;;;;;;5040463;28;20052;-82
2022/09/30 05:36:22;;;;;;;0.00;0.00;;;7.20;99.90;;;;;;5040121;28;20056;-82
2022/09/30 05:38:51;;;;;;;0.00;0.00;;;7.10;99.90;;;;;;5056761;28;20503;-82
2022/09/30 05:41:19;;;;;;;0.00;0.00;;;7.20;99.90;;;;;;5039693;28;20056;-82
2022/09/30 05:43:48;;;;;;;0.00;0.00;;;7.20;99.90;;;;;;5039959;28;20143;-82
2022/09/30 05:46:18;;;;;;;0.10;0.00;;;7.20;99.90;;;;;;5056069;28;20044;-82
2022/09/30 05:48:45;;;;;;;0.10;0.10;;;7.20;99.90;;;;;;5040091;28;20059;-82
2022/09/30 05:51:11;;;;;;;0.00;0.00;;;7.20;99.90;;;;;;5056694;28;20088;-82
2022/09/30 05:53:38;;;;;;;0.35;0.30;;;7.30;99.90;;;;;;5056230;28;20538;-82
2022/09/30 05:56:05;;;;;;;0.20;0.10;;;7.30;99.90;;;;;;5056185;28;20045;-82
2022/09/30 05:58:31;;;;;;;0.10;0.10;;;7.30;99.90;;;;;;5039647;28;20057;-82
2022/09/30 06:00:57;;;;;;;0.00;0.00;;;7.30;99.90;;;;;;5055970;28;20047;-81
2022/09/30 06:03:22;;;;;;;0.00;0.00;;;7.30;99.90;;;;;;5055710;28;20041;-82
2022/09/30 06:05:54;;;;;;;0.00;0.00;;;7.30;99.90;;;;;;5056058;28;20037;-82
2022/09/30 06:08:21;;;;;;;0.10;0.05;;;7.30;99.90;;;;;;5056140;28;20389;-82
2022/09/30 06:10:47;;;;;;;0.00;0.00;;;7.40;99.90;;;;;;5055893;28;20052;-81
2022/09/30 06:13:12;;;;;;;0.00;0.00;;;7.40;99.90;;;;;;5055694;28;20545;-81
2022/09/30 06:15:40;;;;;;;0.00;0.00;;;7.30;99.90;;;;;;5055879;28;20123;-80
2022/09/30 06:18:06;;;;;;;0.43;0.00;;;7.30;99.90;;;;;;5039575;28;20045;-80
2022/09/30 06:20:32;;;;;;;0.10;0.03;;;7.40;99.90;;;;;;5056097;28;20045;-81
2022/09/30 06:23:02;;;;;;;0.00;0.00;;;7.40;99.90;;;;;;5038764;28;20056;-81
2022/09/30 06:25:29;;;;;;;0.80;0.15;;;7.40;99.90;;;;;;5038856;28;20049;-81
2022/09/30 06:27:56;;;;;;;0.00;0.00;;;7.50;99.90;;;;;;5039085;28;20057;-81
2022/09/30 06:30:21;;;;;;;0.00;0.00;;;7.50;99.90;;;;;;5055986;28;20051;-82
2022/09/30 06:32:47;;;;;;;0.00;0.00;;;7.50;99.90;;;;;;5056076;28;20132;-81
2022/09/30 06:35:13;;;;;;;0.00;0.00;;;7.60;99.90;;;;;;5061247;28;20045;-82
2022/09/30 06:37:38;;;;;;;0.10;0.10;;;7.60;99.90;;;;;;5062884;28;20132;-81
2022/09/30 06:40:06;;;;;;;0.00;0.00;;;7.70;99.90;;;;;;5057911;28;20063;-82
2022/09/30 06:42:32;;;;;;;0.00;0.00;;;7.70;99.90;;;;;;5038345;28;20049;-82
2022/09/30 06:44:58;;;;;;;0.70;0.20;;;7.80;99.90;;;;;;5055353;28;20037;-82
2022/09/30 06:47:24;;;;;;;0.00;0.00;;;7.80;99.90;;;;;;5055287;28;20049;-82
2022/09/30 06:49:51;;;;;;;1.75;0.17;;;7.80;99.90;;;;;;5055059;28;20037;-81
2022/09/30 06:52:18;;;;;;;0.25;0.10;;;7.90;99.90;;;;;;5055056;28;20060;-82
2022/09/30 06:54:45;;;;;;;0.32;0.08;;;8.00;99.90;;;;;;5038423;28;20071;-82
2022/09/30 06:57:12;;;;;;;0.00;0.00;;;8.10;99.90;;;;;;5038494;28;20053;-83
2022/09/30 06:59:37;;;;;;;0.00;0.00;;;8.10;99.90;;;;;;5055208;28;20045;-82
2022/09/30 07:02:03;;;;;;;0.35;0.00;;;8.20;99.90;;;;;;5054869;28;20060;-82
2022/09/30 07:04:29;;;;;;;0.32;0.00;;;8.50;99.90;;;;;;5054723;28;20114;-83
2022/09/30 07:06:55;;;;;;;0.00;0.00;;;8.90;99.90;;;;;;5037821;28;20049;-82
2022/09/30 07:09:20;;;;;;;0.90;0.15;;;9.50;99.90;;;;;;5054416;28;20085;-82
2022/09/30 07:11:47;;;;;;;0.63;0.13;;;9.80;99.90;;;;;;5071484;28;20053;-82
2022/09/30 07:14:13;;;;;;;0.00;0.00;;;9.80;99.90;;;;;;5037963;28;20053;-82
2022/09/30 07:16:38;;;;;;;0.00;0.00;;;9.70;99.90;;;;;;5036983;28;20559;-82
2022/09/30 07:19:06;;;;;;;0.00;0.00;;;9.60;99.90;;;;;;5038405;28;20052;-82
2022/09/30 07:21:32;;;;;;;0.00;0.00;;;9.60;99.90;;;;;;5054710;28;20365;-82
2022/09/30 07:23:58;;;;;;;0.10;0.00;;;9.60;99.90;;;;;;5037912;28;20102;-81
2022/09/30 07:26:25;;;;;;;0.00;0.00;;;9.70;99.90;;;;;;5054694;28;20480;-82
2022/09/30 07:28:51;;;;;;;0.08;0.05;;;9.90;99.90;;;;;;5038490;28;20053;-82
2022/09/30 07:31:27;;;;;;;0.00;0.00;;;10.10;99.90;;;;;;5054272;28;20051;-82
2022/09/30 07:33:55;;;;;;;0.00;0.00;;;10.10;99.90;;;;;;5037816;28;20381;-82
2022/09/30 07:36:26;;;;;;;0.10;0.10;;;10.10;99.90;;;;;;5054379;28;20044;-82
2022/09/30 07:38:52;;;;;;;0.03;0.03;;;10.10;99.90;;;;;;5038434;28;20044;-82
2022/09/30 07:41:24;;;;;;;0.28;0.28;;;10.00;99.90;;;;;;5053944;28;20045;-82
2022/09/30 07:43:50;;;;;;;0.00;0.00;;;9.90;99.90;;;;;;5037554;28;20056;-82
2022/09/30 07:46:25;;;;;;;0.00;0.00;;;9.90;99.90;;;;;;5053605;28;20036;-81
2022/09/30 07:48:56;;;;;;;0.15;0.00;;;9.90;99.90;;;;;;5053959;28;20099;-81
2022/09/30 07:51:29;;;;;;;0.10;0.10;;;10.00;99.90;;;;;;5038149;28;20053;-81
2022/09/30 07:54:01;;;;;;;0.00;0.00;;;9.90;99.90;;;;;;5054218;28;20057;-81
2022/09/30 07:56:28;;;;;;;0.00;0.00;;;9.90;99.90;;;;;;5053897;28;20135;-82
2022/09/30 07:58:59;;;;;;;0.20;0.20;;;10.00;99.90;;;;;;5053750;28;20431;-81
2022/09/30 08:01:26;;;;;;;0.10;0.08;;;10.00;99.90;;;;;;5037202;28;20053;-82
2022/09/30 08:03:55;;;;;;;0.00;0.00;;;10.10;99.90;;;;;;5037372;28;20059;-81
2022/09/30 08:06:21;;;;;;;0.03;0.03;;;10.10;99.90;;;;;;5036750;28;20041;-82
2022/09/30 08:08:50;;;;;;;0.00;0.00;;;10.30;99.90;;;;;;5036947;28;20044;-82
2022/09/30 08:11:16;;;;;;;0.00;0.00;;;10.30;99.90;;;;;;5053500;28;20053;-82
2022/09/30 08:13:41;;;;;;;0.00;0.00;;;10.30;99.90;;;;;;5053290;28;20085;-81
2022/09/30 08:16:07;;;;;;;0.00;0.00;;;10.40;99.90;;;;;;5042090;28;20113;-81
2022/09/30 08:18:33;;;;;;;0.00;0.00;;;10.50;99.90;;;;;;5058490;28;20037;-82
2022/09/30 08:21:06;;;;;;;0.00;0.00;;;10.50;99.90;;;;;;5058558;28;20135;-82
2022/09/30 08:23:32;;;;;;;0.10;0.08;;;10.60;99.90;;;;;;5053314;28;20041;-82
2022/09/30 08:26:04;;;;;;;0.00;0.00;;;10.60;99.90;;;;;;5036614;28;20041;-82
2022/09/30 08:28:31;;;;;;;1.08;0.35;;;10.70;99.90;;;;;;5036886;28;20056;-82
2022/09/30 08:31:09;;;;;;;0.00;0.00;;;10.80;99.90;;;;;;5053123;28;20443;-82
2022/09/30 08:33:35;;;;;;;0.00;0.00;;;10.90;99.90;;;;;;5053529;28;20060;-82
2022/09/30 08:36:05;;;;;;;0.00;0.00;;;11.00;99.90;;;;;;5070104;28;20048;-82
2022/09/30 08:38:31;;;;;;;0.15;0.00;;;11.20;99.90;;;;;;5053408;28;20090;-82
2022/09/30 08:41:30;;;;;;;0.03;0.00;;;11.40;99.90;;;;;;5036642;28;20056;-82
2022/09/30 08:44:13;;;;;;;0.38;0.08;;;11.60;99.90;;;;;;5053247;28;20056;-82
2022/09/30 08:46:51;;;;;;;0.20;0.10;;;11.90;99.90;;;;;;5036502;28;20045;-82
2022/09/30 08:49:50;;;;;;;0.10;0.10;;;12.20;99.90;;;;;;5036375;28;20053;-82
2022/09/30 08:52:21;;;;;;;0.30;0.22;;;12.40;99.90;;;;;;5036803;28;20060;-82
2022/09/30 08:54:53;;;;;;;0.40;0.00;;;12.70;99.90;;;;;;5036487;28;20132;-82
2022/09/30 08:57:20;;;;;;;0.10;0.03;;;13.00;99.90;;;;;;5036497;28;20044;-82
2022/09/30 08:59:55;;;;;;;0.00;0.00;;;13.20;99.90;;;;;;5052985;28;20048;-82
2022/09/30 09:02:23;;;;;;;;;;;13.40;99.90;;;;;;5037042;28;20132;-82
2022/09/30 09:04:53;;;;;;;0.00;0.00;;;13.50;99.90;;;;;;5053291;28;20372;-82
2022/09/30 09:07:46;;;;;;;0.00;0.00;;;13.60;99.90;;;;;;5052538;28;20064;-83
2022/09/30 09:10:15;;;;;;;0.22;0.10;;;13.80;99.90;;;;;;5036078;28;20139;-82
2022/09/30 09:13:14;;;;;;;0.10;0.10;;;13.80;99.90;;;;;;5052724;28;20076;-82
2022/09/30 09:15:46;;;;;;;0.00;0.00;;;13.90;99.90;;;;;;5052930;28;20049;-83
2022/09/30 09:18:28;;;;;;;0.10;0.10;;;14.20;99.90;;;;;;5036136;28;20049;-82
2022/09/30 09:21:27;;;;;;;1.08;0.10;;;14.30;99.90;;;;;;5036483;28;20144;-83
2022/09/30 09:23:56;;;;;;;0.22;0.10;;;14.40;99.90;;;;;;5052020;28;20148;-82
2022/09/30 09:26:23;;;;;;;0.20;0.10;;;14.50;99.90;;;;;;5035705;28;20048;-82
2022/09/30 09:29:19;;;;;;;0.00;0.00;;;14.60;99.90;;;;;;5052726;28;20096;-83
2022/09/30 09:31:47;;;;;;;0.00;0.00;;;14.80;99.90;;;;;;5036549;28;20061;-82
2022/09/30 09:34:13;;;;;;;0.52;0.20;;;14.90;99.90;;;;;;5052598;28;20504;-82
2022/09/30 09:36:50;;;;;;;0.20;0.20;;;15.00;99.90;;;;;;5036063;28;20076;-82
2022/09/30 09:39:16;;;;;;;0.00;0.00;;;15.00;99.90;;;;;;5054297;28;20507;-82
2022/09/30 09:42:03;;;;;;;0.43;0.10;;;15.10;99.90;;;;;;5039245;28;20057;-82
2022/09/30 09:44:37;;;;;;;0.40;0.40;;;15.10;99.90;;;;;;5056270;28;20111;-83
2022/09/30 09:47:12;;;;;;;0.00;0.00;;;15.20;99.90;;;;;;5039630;28;20041;-83
2022/09/30 09:49:44;;;;;;;0.00;0.00;;;15.40;99.90;;;;;;5055883;28;20504;-83
2022/09/30 09:52:13;;;;;;;0.00;0.00;;;15.60;99.90;;;;;;5056237;28;20504;-83
2022/09/30 09:54:40;;;;;;;0.00;0.00;;;15.80;99.90;;;;;;5056011;28;20389;-82
2022/09/30 09:57:11;;;;;;;0.50;0.10;;;15.90;99.90;;;;;;5056260;28;20095;-83
2022/09/30 09:59:53;;;;;;;0.08;0.08;;;15.90;99.90;;;;;;5055989;28;20532;-86
2022/09/30 10:02:25;;;;;;;0.22;0.08;;;16.20;99.90;;;;;;5039220;28;20053;-82
2022/09/30 10:04:58;;;;;;;0.00;0.00;;;16.40;99.90;;;;;;5055621;28;20057;-82
2022/09/30 10:07:26;;;;;;;0.10;0.08;;;16.50;99.90;;;;;;5055768;28;20123;-82
2022/09/30 10:10:14;;;;;;;0.20;0.20;;;16.60;99.90;;;;;;5039326;28;20147;-82
2022/09/30 10:12:40;;;;;;;0.28;0.13;;;16.80;99.90;;;;;;5056297;28;20090;-83
2022/09/30 10:15:22;;;;;;;0.13;0.13;;;17.00;99.90;;;;;;5056327;28;20400;-83
2022/09/30 10:17:58;;;;;;;0.13;0.13;;;17.30;99.90;;;;;;5039292;28;20044;-84
2022/09/30 10:20:32;;;;;;;0.10;0.10;;;17.60;99.90;;;;;;5039221;28;20093;-82
2022/09/30 10:23:16;;;;;;;0.43;0.15;;;17.70;99.90;;;;;;5055490;28;20412;-83
2022/09/30 10:25:55;;;;;;;0.43;0.03;;;17.70;99.90;;;;;;5039400;28;20041;-82
2022/09/30 10:28:24;;;;;;;0.00;0.00;;;17.90;99.90;;;;;;5039162;28;20056;-83
2022/09/30 10:31:25;;;;;;;0.63;0.28;;;17.90;99.90;;;;;;5055192;28;20046;-83
2022/09/30 10:33:56;;;;;;;0.00;0.00;;;17.90;99.90;;;;;;5057290;28;20048;-83
2022/09/30 10:36:32;;;;;;;0.00;0.00;;;17.90;99.90;;;;;;5056954;28;20067;-83
2022/09/30 10:39:07;;;;;;;0.00;0.00;;;17.90;99.90;;;;;;5057707;28;20517;-84
2022/09/30 10:41:35;;;;;;;0.43;0.22;;;18.30;99.90;;;;;;5057818;28;20110;-83
2022/09/30 10:44:21;;;;;;;0.40;0.30;;;18.10;99.90;;;;;;5057747;28;20044;-82
2022/09/30 10:46:52;;;;;;;5.53;0.10;;;17.90;99.90;;;;;;5057957;28;20040;-82
2022/09/30 10:49:50;;;;;;;0.95;0.38;;;17.90;99.90;;;;;;5040917;28;20045;-84
2022/09/30 10:52:21;;;;;;;0.45;0.45;;;17.90;99.90;;;;;;5056974;28;20126;-83
2022/09/30 10:54:55;;;;;;;0.85;0.20;;;18.00;99.90;;;;;;5057568;28;20443;-83
2022/09/30 10:57:31;;;;;;;0.00;0.00;;;17.90;99.90;;;;;;5057396;28;20063;-83
2022/09/30 11:00:20;;;;;;;0.63;0.47;;;18.00;99.90;;;;;;5057996;28;20040;-83
2022/09/30 11:03:11;;;;;;;0.15;0.08;;;18.00;99.90;;;;;;5040611;28;20082;-82
2022/09/30 11:05:44;;;;;;;0.00;0.00;;;18.00;99.90;;;;;;5057441;28;20076;-82
2022/09/30 11:08:56;;;;;;;0.38;0.38;;;18.20;99.90;;;;;;5057424;28;20049;-82
2022/09/30 11:11:42;;;;;;;0.28;0.28;;;18.40;99.90;;;;;;5004831;28;20089;-82
2022/09/30 11:14:16;;;;;;;0.00;0.00;;;18.00;99.90;;;;;;5034354;28;20108;-82
2022/09/30 11:17:02;;;;;;;0.43;0.20;;;17.90;99.90;;;;;;5017490;28;20627;-83
2022/09/30 11:19:37;;;;;;;0.10;0.10;;;17.80;99.10;;;;;;5017114;28;20057;-82
2022/09/30 11:22:27;;;;;;;1.65;0.40;;;17.90;99.90;;;;;;5017377;28;20072;-83
2022/09/30 11:24:54;;;;;;;0.00;0.00;;;18.10;99.90;;;;;;5016996;28;20087;-82
2022/09/30 11:27:41;;;;;;;0.00;0.00;;;18.10;99.90;;;;;;5016990;28;20384;-83
2022/09/30 11:30:18;;;;;;;0.08;0.08;;;18.20;99.90;;;;;;5017269;28;20053;-83
2022/09/30 11:32:43;;;;;;;1.75;0.82;;;18.30;99.70;;;;;;5016891;28;20132;-82
2022/09/30 11:35:30;;;;;;;0.10;0.10;;;18.10;97.30;;;;;;5017079;28;20152;-82
2022/09/30 11:38:14;;;;;;;0.20;0.20;;;17.90;99.80;;;;;;5016996;28;20583;-82
2022/09/30 11:40:50;;;;;;;0.10;0.10;;;17.80;98.70;;;;;;5017200;28;20425;-82
2022/09/30 11:43:40;;;;;;;1.75;0.47;;;17.80;98.00;;;;;;5016345;28;20066;-83
2022/09/30 11:46:26;;;;;;;2.13;0.80;;;18.00;99.40;;;;;;5017082;28;20080;-82
2022/09/30 11:49:30;;;;;;;1.75;0.43;;;18.10;98.40;;;;;;5045311;28;20504;-82
2022/09/30 11:52:14;;;;;;;0.30;0.30;;;18.00;99.40;;;;;;5037700;28;20056;-82
2022/09/30 11:54:51;;;;;;;0.10;0.03;;;18.10;99.20;;;;;;5037023;28;20447;-82
2022/09/30 11:57:26;;;;;;;0.10;0.10;;;18.10;99.00;;;;;;5054368;28;20041;-82
2022/09/30 11:59:54;;;;;;;;;;;18.20;99.90;;;;;;5037985;28;20053;-82
2022/09/30 12:02:37;;;;;;;0.20;0.20;;;18.40;98.90;;;;;;5037165;28;20054;-83
2022/09/30 12:05:09;;;;;;;0.43;0.22;;;18.30;96.90;;;;;;5037329;28;20033;-83
2022/09/30 12:07:41;;;;;;;0.10;0.05;;;18.00;96.30;;;;;;5054429;28;20045;-82
2022/09/30 12:10:30;;;;;;;0.30;0.17;;;18.20;98.50;;;;;;5071061;28;20051;-82
2022/09/30 12:13:01;;;;;;;0.75;0.32;;;18.20;97.20;;;;;;5037255;28;20057;-82
2022/09/30 12:15:29;;;;;;;0.30;0.30;;;18.40;96.00;;;;;;5053768;28;20055;-82
2022/09/30 12:18:04;;;;;;;0.00;0.00;;;18.80;96.50;;;;;;5053527;28;20056;-82
2022/09/30 12:20:41;;;;;;;0.08;0.08;;;19.20;95.80;;;;;;5053574;28;20052;-82
2022/09/30 12:23:34;;;;;;;0.10;0.10;;;19.50;95.40;;;;;;5054220;28;20044;-82
2022/09/30 12:26:03;;;;;;;0.50;0.15;;;19.60;94.70;;;;;;5037172;28;20071;-82
2022/09/30 12:31:36;;;;;;;0.00;0.00;;;19.50;94.10;;;;;;5053881;28;20538;-82
2022/09/30 12:34:23;;;;;;;0.57;0.08;;;19.40;95.60;;;;;;5053853;28;20420;-82
2022/09/30 12:37:13;;;;;;;0.00;0.00;;;19.40;94.30;;;;;;5053776;28;20059;-82
2022/09/30 12:40:17;;;;;;;0.28;0.10;;;19.40;94.90;;;;;;5053586;28;20575;-82
2022/09/30 12:43:02;;;;;;;0.08;0.05;;;19.20;94.20;;;;;;5052903;28;20088;-82
2022/09/30 12:45:55;;;;;;;2.33;0.85;;;19.10;95.30;;;;;;5053721;28;20135;-82
2022/09/30 12:48:26;;;;;;;0.17;0.10;;;18.90;93.70;;;;;;5036424;28;20562;-82
2022/09/30 12:50:56;;;;;;;0.08;0.08;;;18.90;94.70;;;;;;5036763;28;20053;-82
2022/09/30 12:53:29;;;;;;;0.10;0.10;;;18.90;94.80;;;;;;5052847;28;20463;-83
2022/09/30 12:56:03;;;;;;;0.10;0.10;;;18.80;94.30;;;;;;5053424;28;20037;-82
2022/09/30 12:58:37;;;;;;;0.22;0.00;;;18.70;95.10;;;;;;5053539;28;20040;-82
2022/09/30 13:01:02;;;;;;;0.00;0.00;;;18.50;95.70;;;;;;5053439;28;20055;-82
2022/09/30 13:03:50;;;;;;;0.30;0.20;;;18.40;95.40;;;;;;5053202;28;20136;-82
2022/09/30 13:06:19;;;;;;;0.15;0.10;;;18.30;95.40;;;;;;5036297;28;20075;-82
2022/09/30 13:09:06;;;;;;;0.47;0.25;;;18.30;96.10;;;;;;5052994;28;20081;-82
2022/09/30 13:11:38;;;;;;;0.88;0.52;;;18.20;94.70;;;;;;5052865;28;20045;-82
2022/09/30 13:14:33;;;;;;;0.88;0.28;;;18.00;94.60;;;;;;5038140;28;20045;-82
2022/09/30 13:17:00;;;;;;;0.10;0.10;;;18.00;96.00;;;;;;5041192;28;20481;-82
2022/09/30 13:19:41;;;;;;;0.00;0.00;;;18.10;96.20;;;;;;5057069;28;20053;-81
2022/09/30 13:22:19;;;;;;;0.10;0.10;;;18.20;96.10;;;;;;5057180;28;20095;-81
2022/09/30 13:25:01;;;;;;;0.10;0.10;;;18.20;97.00;;;;;;5040441;28;20078;-82
2022/09/30 13:27:36;;;;;;;0.38;0.13;;;18.50;97.40;;;;;;5040191;28;20068;-82
2022/09/30 13:30:23;;;;;;;;;;;18.30;96.00;;;;;;5057278;28;20084;-82